Tavistock, Canada
Current Conditions -  °F | °C
As of 7:00 PM on Sunday 25 Jan 2015 (Local Time) from CYKF Reporting Station
Overcast Overcast  
Wind Chill:   Ceiling: 19000
Heat Index: 12°   Visibility: 9mi
Dew Point:   Wind: 8mph
Humidity: 57%   Direction: 10°N
Pressure: 29.99"   Gusts: NA
Location:  43.32°N, 80.83°W
Report Text: CYKF 260000Z AUTO 01007KT 9SM OVC190 M11/M18 A2999 RMK SLP178
Loading
Personal Weather Stations






























Interactive Weather Map New forecast layout! Learn more

10-Day Weather Forecast

Advertisements
Track Severe Weather on mobile